CYED

Edmonton (CFB Namao) Heliport

Edmonton, Alberta, Canada
METAR CYED 100600Z AUTO 00000KT 9SM CLR M10/M14 A2981 RMK SLP137
Observed Flight Rules
Dec-10 @ 06:00 UTC (28 minutes ago) Visual Flight Rules
Visibility Clouds
9 miles
  • Clear skies
Temperatures Readings
Current -10°C / 14°F
Dewpoint -14°C / 7°F
Humidity 73%
Altimeter 29.81" Hg
Pressure 1013.7 hPa
Elevation 688
METAR CYED 100600Z AUTO 00000KT 9SM CLR M10/M14 A2981 RMK SLP137
Observed Flight Rules
Dec-10 @ 06:00 UTC
(28 minutes ago)
VFR
Clouds
  • Clear skies
Temperature Dewpoint
-10°C / 14°F -14°C / 7°F
Humidity Altimeter Pressure
73% 29.81" Hg 1013.7 hPa